Aérodrome :
LOGIN :

S'inscrire | Disclaimer

   EN    FR    IT 

 










Légende :    VFR   VFR Marginal   IFR   IFR Intensif   IFR Très Intensif
Visi : 
Plafond : 
>= 8 km
>= 3000ft
5 à 8 km
1000 à 3000 ft
1500m à 5 km
500 à 1000 ft
800 à 1500m
200 à 500 ft
< 800m
< 200 ft
Symboles :   Orages  Brouillard  Fortes neiges  Fortes précipitations  Vent > 20 kt
SIGMETs :   Divers  Orages  Givrage  Turbulence  Onde Orograph.  Cendres Volcan.






- Altitude de l'aérodrome : 124 ft
- Code IATA : AVN


LFMV - Avignon Caumont

DERNIER METAR :
  • 201130Z AUTO 34016KT 9999 SCT074 OVC088 06/M01 Q1034 NOSIG

METARs EXPIRÉS :
  • 201100Z AUTO 34014KT CAVOK 06/M01 Q1035 NOSIG
  • 201030Z AUTO 34011KT 310V010 9999 FEW074 OVC084 05/M01 Q1035 NOSIG
  • 201000Z AUTO 34016KT CAVOK 05/M01 Q1035 NOSIG
  • 200930Z AUTO 35015G26KT 310V020 CAVOK 04/M01 Q1035 BECMG 34017KT

TAF TAF LFMV
Valide du 20 à 09h jusqu'au 21 à 09h UTC


200800Z 2009/2109 34017KT CAVOK
BECMG 2019/2021 34007KT
TEMPO 2023/2105 -RA BKN045
BECMG 2105/2107 BKN070
ATIS : +33 4 90 84 32 84



MET'MAP, la Météo Aéronautique d'un coup d'oeil ! - Copyright ORBIFLY Décembre 2007 - Disclaimer

ORBIFLY MET'MAP TEAM :

Programmation & Développement : Alexandra Zaïnal
Sur une idée originale de : Baudouin d'Aumeries
Assistance à la programmation : Marc-Olivier Méhu
Soutien technique & logistique : Manuel Goepfert

Contact : metmap@orbifly.com




SOURCES & CREDITS :

   NOAA